Time;durP1;ratioP1;P1;durP2;ratioP2;P2;SDS_P1;SDS_P2;PMS_P1;PMS_P2;Temp;Humidity;BMP_temperature;BMP_pressure;BME280_temperature;BME280_humidity;BME280_pressure;Samples;Min_cycle;Max_cycle;Signal;HPM_P1;HPM_P2
2021/07/19 00:01:40;;;;;;;4.07;3.70;;;18.40;99.90;;;;;;5034634;28;20195;-67
2021/07/19 00:04:06;;;;;;;3.50;3.20;;;18.40;99.90;;;;;;5034728;28;20449;-67
2021/07/19 00:06:32;;;;;;;4.23;2.70;;;18.50;99.90;;;;;;5034731;28;20215;-67
2021/07/19 00:08:57;;;;;;;4.77;4.03;;;18.50;99.90;;;;;;5034373;28;20169;-68
2021/07/19 00:11:23;;;;;;;5.33;3.67;;;18.50;99.90;;;;;;5034663;28;20295;-68
2021/07/19 00:13:49;;;;;;;3.30;3.00;;;18.50;99.90;;;;;;5034621;28;20171;-68
2021/07/19 00:16:15;;;;;;;3.80;3.43;;;18.50;99.90;;;;;;5034464;28;20253;-68
2021/07/19 00:18:41;;;;;;;2.93;2.60;;;18.50;99.90;;;;;;5034764;28;20982;-68
2021/07/19 00:21:07;;;;;;;3.47;2.80;;;18.60;99.90;;;;;;5034168;28;20250;-69
2021/07/19 00:23:32;;;;;;;4.33;2.60;;;18.60;99.90;;;;;;5034253;28;20401;-67
2021/07/19 00:25:58;;;;;;;3.90;3.33;;;18.50;99.90;;;;;;5034180;28;20186;-66
2021/07/19 00:28:24;;;;;;;5.37;2.83;;;18.50;99.90;;;;;;5034058;28;20176;-67
2021/07/19 00:30:50;;;;;;;4.50;3.30;;;18.50;99.90;;;;;;5033919;28;20583;-67
2021/07/19 00:33:16;;;;;;;3.80;3.10;;;18.60;99.90;;;;;;5034029;28;20486;-69
2021/07/19 00:35:43;;;;;;;2.97;2.77;;;18.50;99.90;;;;;;5034051;28;20178;-69
2021/07/19 00:38:09;;;;;;;4.20;3.43;;;18.50;99.90;;;;;;5033631;28;20409;-68
2021/07/19 00:40:36;;;;;;;4.50;2.90;;;18.60;99.90;;;;;;5033886;28;20769;-68
2021/07/19 00:43:03;;;;;;;2.60;2.40;;;18.70;99.90;;;;;;5034007;28;20255;-66
2021/07/19 00:45:31;;;;;;;2.87;2.40;;;18.70;99.90;;;;;;5033692;28;20889;-68
2021/07/19 00:47:59;;;;;;;3.53;2.97;;;18.70;99.90;;;;;;5033715;28;20454;-67
2021/07/19 00:50:27;;;;;;;2.93;2.63;;;18.70;99.90;;;;;;5033630;28;20771;-67
2021/07/19 00:52:59;;;;;;;3.77;2.67;;;18.70;99.90;;;;;;5033845;28;20505;-67
2021/07/19 00:55:34;;;;;;;3.13;2.93;;;18.70;99.90;;;;;;5033924;28;20404;-68
2021/07/19 00:58:04;;;;;;;3.00;2.80;;;18.70;99.90;;;;;;5033672;28;20398;-68
2021/07/19 01:00:33;;;;;;;2.83;2.63;;;18.70;99.90;;;;;;5033520;28;20402;-68
2021/07/19 01:03:01;;;;;;;4.93;3.60;;;18.80;99.90;;;;;;5033659;28;20921;-66
2021/07/19 01:05:28;;;;;;;3.07;2.87;;;18.80;99.90;;;;;;5033615;28;20469;-67
2021/07/19 01:07:54;;;;;;;3.07;2.70;;;18.80;99.90;;;;;;5033624;28;20511;-68
2021/07/19 01:10:20;;;;;;;3.67;3.30;;;18.80;99.90;;;;;;5033332;28;20410;-66
2021/07/19 01:12:52;;;;;;;4.60;3.33;;;18.90;99.90;;;;;;5033459;28;20552;-68
2021/07/19 01:15:19;;;;;;;3.23;2.93;;;18.80;99.90;;;;;;5033663;28;20429;-67
2021/07/19 01:17:45;;;;;;;4.13;3.77;;;18.70;99.90;;;;;;5033337;28;20440;-67
2021/07/19 01:20:11;;;;;;;3.10;2.80;;;18.50;99.90;;;;;;5033206;28;20414;-67
2021/07/19 01:22:54;;;;;;;3.43;2.60;;;18.60;99.90;;;;;;5033491;28;20407;-66
2021/07/19 01:25:41;;;;;;;2.87;2.67;;;18.40;99.90;;;;;;5031983;28;20449;-68
2021/07/19 01:28:34;;;;;;;4.93;3.10;;;18.30;99.90;;;;;;5033354;28;20452;-67
2021/07/19 01:31:03;;;;;;;4.97;3.00;;;18.10;99.90;;;;;;5033070;28;20414;-68
2021/07/19 01:33:30;;;;;;;3.53;2.70;;;18.00;99.90;;;;;;5033241;28;20497;-68
2021/07/19 01:35:57;;;;;;;5.80;3.30;;;18.00;99.90;;;;;;5033171;28;20887;-68
2021/07/19 01:38:24;;;;;;;3.50;3.10;;;18.00;99.90;;;;;;5033435;28;20410;-68
2021/07/19 01:40:51;;;;;;;2.90;2.70;;;18.00;99.90;;;;;;5033178;28;20413;-68
2021/07/19 01:43:18;;;;;;;5.33;3.40;;;18.00;99.90;;;;;;5033322;28;20402;-67
2021/07/19 01:45:45;;;;;;;7.77;3.10;;;18.00;99.90;;;;;;5033146;28;20976;-68
2021/07/19 01:48:12;;;;;;;4.27;3.27;;;18.00;99.90;;;;;;5033103;28;20931;-67
2021/07/19 01:50:39;;;;;;;3.80;3.30;;;18.00;99.90;;;;;;5036385;28;20437;-67
2021/07/19 01:53:05;;;;;;;4.77;2.77;;;18.10;99.90;;;;;;5037177;28;20416;-67
2021/07/19 01:55:32;;;;;;;3.80;3.17;;;18.00;99.90;;;;;;5037137;28;20877;-67
2021/07/19 01:57:58;;;;;;;4.43;3.50;;;18.00;99.90;;;;;;5036815;28;20918;-68
2021/07/19 02:00:24;;;;;;;4.10;3.33;;;18.10;99.90;;;;;;5036738;28;20402;-66
2021/07/19 02:02:53;;;;;;;4.03;2.67;;;18.10;99.90;;;;;;5036994;28;20409;-68
2021/07/19 02:05:20;;;;;;;3.10;2.80;;;18.00;99.90;;;;;;5036821;28;20293;-66
2021/07/19 02:07:49;;;;;;;8.10;4.43;;;18.00;99.90;;;;;;5036521;28;20503;-67
2021/07/19 02:10:16;;;;;;;5.03;2.80;;;17.90;99.90;;;;;;5036562;28;20417;-67
2021/07/19 02:12:43;;;;;;;3.70;3.40;;;18.00;99.90;;;;;;5036816;28;20413;-67
2021/07/19 02:15:16;;;;;;;3.13;2.93;;;17.90;99.90;;;;;;5036656;28;20409;-66
2021/07/19 02:17:47;;;;;;;4.40;3.43;;;17.90;99.90;;;;;;5036488;28;20476;-69
2021/07/19 02:20:15;;;;;;;3.53;2.63;;;17.90;99.90;;;;;;5036525;28;20401;-67
2021/07/19 02:22:44;;;;;;;9.43;3.30;;;17.80;99.90;;;;;;5036700;28;20492;-67
2021/07/19 02:25:11;;;;;;;3.07;2.87;;;17.80;99.90;;;;;;5036517;28;20552;-66
2021/07/19 02:27:39;;;;;;;4.10;3.20;;;17.80;99.90;;;;;;5036327;28;20425;-69
2021/07/19 02:30:10;;;;;;;4.13;3.20;;;17.80;99.90;;;;;;5036225;28;20406;-68
2021/07/19 02:32:39;;;;;;;4.03;3.63;;;17.90;99.90;;;;;;5036361;28;20443;-68
2021/07/19 02:35:08;;;;;;;3.30;3.00;;;17.90;99.90;;;;;;5036417;28;20397;-68
2021/07/19 02:37:44;;;;;;;6.23;2.63;;;18.00;99.90;;;;;;5036103;28;20444;-67
2021/07/19 02:40:12;;;;;;;5.67;3.10;;;18.00;99.90;;;;;;5036149;28;20405;-68
2021/07/19 02:42:43;;;;;;;5.03;2.83;;;18.00;99.90;;;;;;5036153;28;20437;-68
2021/07/19 02:45:11;;;;;;;4.10;3.10;;;18.00;99.90;;;;;;5036126;28;20467;-69
2021/07/19 02:47:37;;;;;;;3.57;3.27;;;18.00;99.90;;;;;;5036101;28;20430;-68
2021/07/19 02:50:04;;;;;;;3.70;3.37;;;18.00;99.90;;;;;;5035783;28;20402;-68
2021/07/19 02:52:31;;;;;;;3.60;3.30;;;18.00;99.90;;;;;;5035884;28;20741;-66
2021/07/19 02:54:58;;;;;;;2.73;2.53;;;18.00;99.90;;;;;;5034699;28;20777;-67
2021/07/19 02:57:24;;;;;;;3.50;3.20;;;18.10;99.90;;;;;;5035779;28;20853;-69
2021/07/19 02:59:50;;;;;;;3.00;2.70;;;18.10;99.90;;;;;;5035395;28;20422;-67
2021/07/19 03:02:21;;;;;;;2.60;2.40;;;18.10;99.90;;;;;;5034612;28;20229;-66
2021/07/19 03:04:50;;;;;;;4.20;3.47;;;18.00;99.90;;;;;;5034563;28;20570;-67
2021/07/19 03:07:19;;;;;;;4.43;3.83;;;18.00;99.90;;;;;;5035487;28;20490;-67
2021/07/19 03:09:48;;;;;;;4.83;3.97;;;18.00;99.90;;;;;;5035491;28;20414;-68
2021/07/19 03:12:19;;;;;;;6.20;3.00;;;17.90;99.90;;;;;;5035779;28;20422;-69
2021/07/19 03:14:48;;;;;;;3.00;2.73;;;17.80;99.90;;;;;;5035706;28;20406;-69
2021/07/19 03:17:18;;;;;;;3.57;3.23;;;17.70;99.90;;;;;;5035402;28;20436;-67
2021/07/19 03:19:45;;;;;;;5.03;3.50;;;17.60;99.90;;;;;;5035240;28;20913;-67
2021/07/19 03:22:13;;;;;;;4.10;3.20;;;17.70;99.90;;;;;;5035572;28;20492;-68
2021/07/19 03:24:39;;;;;;;3.83;3.10;;;17.80;99.90;;;;;;5035504;28;20453;-68
2021/07/19 03:27:05;;;;;;;3.90;3.60;;;17.80;99.90;;;;;;5035353;28;20426;-66
2021/07/19 03:29:33;;;;;;;3.40;3.10;;;17.80;99.90;;;;;;5035115;28;20771;-68
2021/07/19 03:31:59;;;;;;;4.73;3.50;;;17.90;99.90;;;;;;5035380;28;20410;-68
2021/07/19 03:34:25;;;;;;;5.23;3.60;;;17.90;99.90;;;;;;5035201;28;20464;-67
2021/07/19 03:36:54;;;;;;;3.80;3.50;;;17.80;99.90;;;;;;5035095;28;20433;-68
2021/07/19 03:39:21;;;;;;;4.20;3.37;;;17.60;99.90;;;;;;5035121;28;20410;-68
2021/07/19 03:41:52;;;;;;;3.80;3.20;;;17.70;99.90;;;;;;5035148;28;20409;-68
2021/07/19 03:44:20;;;;;;;5.40;3.80;;;17.60;99.90;;;;;;5035139;28;20803;-68
2021/07/19 03:46:46;;;;;;;3.70;3.40;;;17.50;99.90;;;;;;5034854;28;20430;-69
2021/07/19 03:49:13;;;;;;;5.43;3.70;;;17.50;99.90;;;;;;5034697;28;20413;-68
2021/07/19 03:51:43;;;;;;;3.60;3.30;;;17.40;99.90;;;;;;5034961;28;20424;-68
2021/07/19 03:54:08;;;;;;;4.27;3.87;;;17.30;99.90;;;;;;5035018;28;20424;-68
2021/07/19 03:56:35;;;;;;;4.03;3.30;;;17.30;99.90;;;;;;5034727;28;20483;-67
2021/07/19 03:59:02;;;;;;;4.50;2.90;;;17.20;99.90;;;;;;5034449;28;20177;-69
2021/07/19 04:01:29;;;;;;;6.00;4.27;;;17.10;99.90;;;;;;5034659;28;20409;-68
2021/07/19 04:04:05;;;;;;;5.30;4.80;;;17.00;99.90;;;;;;5034840;28;20457;-67
2021/07/19 04:06:31;;;;;;;4.80;3.77;;;16.90;99.90;;;;;;5034050;28;20449;-67
2021/07/19 04:08:57;;;;;;;4.00;2.93;;;16.80;99.90;;;;;;5033478;28;20433;-68
2021/07/19 04:11:24;;;;;;;4.10;3.70;;;16.80;99.90;;;;;;5033278;28;20415;-67
2021/07/19 04:13:50;;;;;;;4.63;3.90;;;16.90;99.90;;;;;;5033319;28;20445;-67
2021/07/19 04:16:19;;;;;;;3.53;3.20;;;16.90;99.90;;;;;;5033513;28;20806;-69
2021/07/19 04:18:46;;;;;;;5.17;4.27;;;16.80;99.90;;;;;;5033323;28;20406;-66
2021/07/19 04:21:12;;;;;;;4.40;3.33;;;16.80;99.90;;;;;;5033605;28;20410;-69
2021/07/19 04:23:39;;;;;;;4.80;3.37;;;16.90;99.90;;;;;;5033323;28;20905;-67
2021/07/19 04:26:05;;;;;;;3.87;3.57;;;17.00;99.90;;;;;;5033423;28;20452;-68
2021/07/19 04:28:33;;;;;;;4.67;3.73;;;17.00;99.90;;;;;;5033357;28;20905;-66
2021/07/19 04:31:00;;;;;;;4.00;3.37;;;17.20;99.90;;;;;;5033208;28;20437;-68
2021/07/19 04:33:26;;;;;;;6.10;3.80;;;17.30;99.90;;;;;;5033318;28;20455;-69
2021/07/19 04:35:51;;;;;;;3.60;3.30;;;17.40;99.90;;;;;;5033290;28;20811;-68
2021/07/19 04:38:24;;;;;;;5.20;3.20;;;17.50;99.90;;;;;;5033189;28;20670;-67
2021/07/19 04:40:57;;;;;;;5.30;3.37;;;17.50;99.90;;;;;;5033067;28;20312;-67
2021/07/19 04:43:24;;;;;;;4.00;3.70;;;17.60;99.90;;;;;;5033146;28;20908;-68
2021/07/19 04:45:50;;;;;;;4.80;3.40;;;17.80;99.90;;;;;;5032979;28;20445;-68
2021/07/19 04:48:17;;;;;;;4.30;3.80;;;17.90;99.90;;;;;;5033199;28;20413;-68
2021/07/19 04:50:44;;;;;;;4.43;4.03;;;18.20;99.90;;;;;;5032822;28;20402;-67
2021/07/19 04:53:10;;;;;;;4.57;4.27;;;18.40;99.90;;;;;;5033123;28;20414;-68
2021/07/19 04:55:37;;;;;;;5.20;3.40;;;18.60;99.90;;;;;;5032870;28;20429;-66
2021/07/19 04:58:04;;;;;;;4.83;4.30;;;18.80;99.90;;;;;;5033001;28;20772;-68
2021/07/19 05:00:32;;;;;;;5.70;3.90;;;19.00;99.90;;;;;;5032813;28;20420;-67
2021/07/19 05:03:01;;;;;;;4.03;2.80;;;19.10;99.90;;;;;;5032976;28;20759;-67
2021/07/19 05:05:27;;;;;;;4.03;3.63;;;19.30;99.90;;;;;;5032834;28;20455;-67
2021/07/19 05:07:55;;;;;;;4.33;3.93;;;19.40;99.90;;;;;;4994358;28;1130444;-67
2021/07/19 05:10:23;;;;;;;3.93;3.10;;;19.60;99.90;;;;;;5033532;28;20494;-67
2021/07/19 05:12:52;;;;;;;4.93;3.90;;;19.80;99.90;;;;;;5032298;28;20979;-68
2021/07/19 05:15:19;;;;;;;5.77;4.10;;;19.90;99.80;;;;;;5033574;28;20518;-68
2021/07/19 05:17:45;;;;;;;3.97;3.57;;;20.10;99.80;;;;;;5033307;28;20443;-67
2021/07/19 05:20:20;;;;;;;5.17;4.30;;;20.20;99.60;;;;;;5033244;28;20448;-68
2021/07/19 05:22:52;;;;;;;6.80;3.87;;;20.30;99.40;;;;;;5033223;28;20441;-69
2021/07/19 05:25:26;;;;;;;4.20;3.20;;;20.40;99.10;;;;;;5032664;28;20505;-67
2021/07/19 05:28:10;;;;;;;4.93;3.37;;;20.40;99.50;;;;;;5033355;28;20846;-68
2021/07/19 05:30:41;;;;;;;4.50;3.13;;;20.60;99.50;;;;;;5033127;28;20407;-68
2021/07/19 05:33:07;;;;;;;4.50;3.47;;;20.60;99.20;;;;;;5033307;28;20456;-66
2021/07/19 05:35:34;;;;;;;4.23;3.80;;;20.60;99.00;;;;;;5033541;28;20437;-67
2021/07/19 05:38:00;;;;;;;4.47;4.07;;;20.60;98.20;;;;;;5033716;28;20246;-68
2021/07/19 05:40:25;;;;;;;4.13;3.20;;;20.70;98.40;;;;;;5033170;28;20903;-66
2021/07/19 05:42:51;;;;;;;5.23;4.20;;;20.70;97.50;;;;;;5032118;28;20193;-67
2021/07/19 05:45:17;;;;;;;3.60;3.30;;;20.80;97.50;;;;;;5033242;28;20288;-68
2021/07/19 05:47:43;;;;;;;3.87;2.70;;;20.90;97.40;;;;;;5033052;28;20217;-69
2021/07/19 05:50:10;;;;;;;4.80;3.60;;;21.00;97.20;;;;;;5032959;28;20408;-67
2021/07/19 05:52:36;;;;;;;3.10;2.73;;;20.90;97.50;;;;;;5033448;28;20417;-68
2021/07/19 05:55:03;;;;;;;5.67;3.20;;;21.00;97.40;;;;;;5033217;28;20412;-68
2021/07/19 05:57:29;;;;;;;6.63;3.73;;;21.30;96.40;;;;;;5032882;28;20646;-68
2021/07/19 05:59:56;;;;;;;5.33;4.73;;;21.50;96.20;;;;;;5032807;28;20420;-69
2021/07/19 06:02:29;;;;;;;4.40;4.00;;;21.80;95.80;;;;;;5031764;28;20930;-68
2021/07/19 06:04:55;;;;;;;4.07;3.33;;;22.80;94.60;;;;;;5033008;28;20913;-67
2021/07/19 06:07:21;;;;;;;3.80;3.40;;;24.20;92.60;;;;;;5032767;28;20456;-67
2021/07/19 06:09:47;;;;;;;3.63;3.00;;;25.50;90.80;;;;;;5032870;28;20417;-69
2021/07/19 06:12:13;;;;;;;5.80;4.20;;;26.00;86.90;;;;;;5033045;28;20401;-68
2021/07/19 06:14:40;;;;;;;8.33;3.60;;;25.90;86.00;;;;;;5033315;28;20870;-68
2021/07/19 06:17:06;;;;;;;3.50;3.20;;;25.80;86.30;;;;;;5032795;28;20915;-68
2021/07/19 06:19:32;;;;;;;3.00;2.80;;;26.90;86.30;;;;;;5032697;28;20392;-69
2021/07/19 06:21:57;;;;;;;3.73;3.27;;;27.60;79.40;;;;;;5032966;28;20893;-69
2021/07/19 06:24:23;;;;;;;3.90;3.50;;;28.60;75.30;;;;;;5032897;28;20214;-68
2021/07/19 06:26:49;;;;;;;4.23;3.30;;;29.70;70.10;;;;;;5032917;28;20187;-69
2021/07/19 06:29:14;;;;;;;5.53;3.47;;;30.20;69.50;;;;;;5032561;28;20221;-68
2021/07/19 06:31:40;;;;;;;3.13;2.93;;;31.10;67.90;;;;;;5032805;28;20171;-69
2021/07/19 06:34:08;;;;;;;3.27;2.97;;;31.60;59.50;;;;;;5032817;28;20547;-68
2021/07/19 06:36:35;;;;;;;3.27;3.00;;;31.60;57.00;;;;;;5035660;28;20198;-69
2021/07/19 06:39:04;;;;;;;3.67;3.33;;;32.00;58.00;;;;;;5034979;28;20932;-66
2021/07/19 06:41:31;;;;;;;3.47;3.17;;;32.40;54.10;;;;;;5036318;28;20409;-70
2021/07/19 06:43:57;;;;;;;3.10;2.87;;;32.70;53.70;;;;;;5036274;28;20496;-67
2021/07/19 06:46:22;;;;;;;4.13;3.40;;;33.10;52.70;;;;;;5036351;28;20507;-67
2021/07/19 06:48:48;;;;;;;3.20;2.90;;;33.50;50.60;;;;;;5035963;28;20725;-69
2021/07/19 06:51:13;;;;;;;3.37;3.07;;;33.70;49.60;;;;;;5036120;28;20229;-68
2021/07/19 06:53:39;;;;;;;3.50;3.20;;;33.20;50.20;;;;;;5036170;28;20588;-68
2021/07/19 06:56:05;;;;;;;4.43;3.30;;;32.80;50.70;;;;;;5035972;28;20201;-69
2021/07/19 06:58:30;;;;;;;4.53;3.70;;;33.30;50.70;;;;;;5035847;28;20174;-67
2021/07/19 07:00:56;;;;;;;3.50;3.20;;;33.60;51.10;;;;;;5035661;28;20209;-69
2021/07/19 07:03:22;;;;;;;7.33;4.80;;;34.10;48.30;;;;;;5035883;28;20175;-69
2021/07/19 07:05:47;;;;;;;3.60;3.30;;;34.20;48.40;;;;;;5035540;28;20677;-68
2021/07/19 07:08:13;;;;;;;7.70;3.17;;;34.40;47.30;;;;;;5035784;28;20571;-68
2021/07/19 07:10:38;;;;;;;4.53;3.17;;;33.60;48.60;;;;;;5035446;28;20177;-68
2021/07/19 07:13:09;;;;;;;3.40;3.10;;;33.00;48.90;;;;;;5035586;28;20171;-68
2021/07/19 07:15:38;;;;;;;3.00;2.80;;;33.00;50.90;;;;;;5035547;28;20202;-68
2021/07/19 07:18:08;;;;;;;3.40;3.10;;;33.30;48.50;;;;;;5035385;28;20571;-69
2021/07/19 07:20:35;;;;;;;4.03;3.20;;;33.70;48.70;;;;;;5035475;28;20413;-68
2021/07/19 07:23:01;;;;;;;3.73;3.43;;;33.80;47.50;;;;;;5035599;28;20804;-67
2021/07/19 07:25:27;;;;;;;6.47;3.50;;;33.90;48.30;;;;;;5035469;28;20827;-69
2021/07/19 07:27:53;;;;;;;4.03;3.67;;;33.10;50.80;;;;;;5035250;28;20445;-69
2021/07/19 07:30:18;;;;;;;3.10;2.83;;;32.30;49.60;;;;;;5035201;28;20185;-68
2021/07/19 07:32:44;;;;;;;4.03;2.83;;;31.30;51.20;;;;;;5035327;28;20210;-69
2021/07/19 07:35:11;;;;;;;2.30;2.20;;;31.30;51.20;;;;;;5035314;28;20449;-68
2021/07/19 07:37:37;;;;;;;3.60;3.30;;;32.10;51.80;;;;;;5034973;28;20685;-66
2021/07/19 07:40:05;;;;;;;2.90;2.70;;;33.00;48.30;;;;;;5034882;28;20438;-69
2021/07/19 07:42:31;;;;;;;3.30;3.00;;;33.60;49.10;;;;;;5033783;28;20428;-67
2021/07/19 07:44:58;;;;;;;3.17;2.77;;;33.90;45.40;;;;;;5034969;28;20445;-67
2021/07/19 07:47:24;;;;;;;3.10;2.80;;;34.50;46.20;;;;;;5033980;28;20528;-68
2021/07/19 07:49:50;;;;;;;3.90;3.30;;;34.80;45.10;;;;;;5034795;28;20413;-69
2021/07/19 07:52:17;;;;;;;3.90;3.00;;;34.90;44.10;;;;;;5035015;28;20405;-70
2021/07/19 07:54:43;;;;;;;3.50;3.10;;;34.90;43.40;;;;;;5034811;28;20201;-68
2021/07/19 07:57:09;;;;;;;3.03;2.83;;;35.10;43.40;;;;;;5034839;28;20433;-70
2021/07/19 07:59:36;;;;;;;3.40;3.00;;;35.30;42.20;;;;;;5034736;28;20401;-69
2021/07/19 08:02:02;;;;;;;3.00;2.80;;;35.40;43.00;;;;;;5034817;28;20178;-68
2021/07/19 08:04:28;;;;;;;6.10;2.50;;;36.00;41.80;;;;;;5034658;28;20449;-69
2021/07/19 08:06:55;;;;;;;3.27;3.00;;;36.10;40.20;;;;;;5034405;28;20297;-70
2021/07/19 08:09:21;;;;;;;3.13;2.80;;;36.40;41.10;;;;;;5034339;28;20170;-67
2021/07/19 08:11:47;;;;;;;2.93;2.73;;;36.50;39.70;;;;;;5034488;28;20410;-67
2021/07/19 08:14:12;;;;;;;3.83;2.50;;;36.90;40.60;;;;;;5034374;28;20205;-67
2021/07/19 08:16:39;;;;;;;5.60;3.50;;;36.80;41.40;;;;;;5034340;28;20245;-68
2021/07/19 08:19:07;;;;;;;2.40;2.20;;;36.50;41.20;;;;;;5034418;28;20171;-69
2021/07/19 08:21:33;;;;;;;5.23;3.00;;;36.50;38.80;;;;;;5034485;28;20429;-66
2021/07/19 08:24:00;;;;;;;2.80;2.60;;;36.80;39.50;;;;;;5034173;28;20797;-65
2021/07/19 08:26:26;;;;;;;4.43;2.80;;;37.20;40.40;;;;;;5034017;28;20425;-67
2021/07/19 08:28:53;;;;;;;3.83;3.27;;;37.30;38.70;;;;;;5032746;28;20792;-66
2021/07/19 08:31:19;;;;;;;3.43;2.90;;;37.70;39.20;;;;;;5034300;28;20167;-66
2021/07/19 08:33:45;;;;;;;3.23;2.93;;;38.10;40.40;;;;;;5034191;28;20537;-65
2021/07/19 08:36:10;;;;;;;4.67;2.90;;;38.60;39.60;;;;;;5034366;28;20677;-66
2021/07/19 08:38:36;;;;;;;3.47;2.90;;;38.80;35.50;;;;;;5033968;28;20171;-67
2021/07/19 08:41:02;;;;;;;3.00;2.80;;;37.20;36.10;;;;;;5033855;28;20653;-65
2021/07/19 08:43:30;;;;;;;3.10;2.90;;;35.80;40.20;;;;;;5034105;28;20257;-67
2021/07/19 08:45:56;;;;;;;2.70;2.50;;;36.00;38.50;;;;;;5033944;28;20214;-67
2021/07/19 08:48:23;;;;;;;4.63;3.03;;;36.80;38.00;;;;;;5033746;28;20409;-66
2021/07/19 08:50:49;;;;;;;3.63;3.20;;;37.20;38.60;;;;;;5033690;28;20624;-69
2021/07/19 08:53:15;;;;;;;3.43;2.80;;;36.50;37.70;;;;;;5033729;28;20412;-67
2021/07/19 08:55:42;;;;;;;2.83;2.60;;;35.50;40.80;;;;;;5033699;28;20185;-68
2021/07/19 08:58:12;;;;;;;2.87;2.67;;;34.50;38.80;;;;;;5033473;28;20409;-69
2021/07/19 09:00:38;;;;;;;3.77;2.73;;;33.50;42.70;;;;;;5033611;28;20460;-69
2021/07/19 09:03:03;;;;;;;3.30;2.93;;;33.40;44.20;;;;;;5033635;28;20940;-68
2021/07/19 09:05:30;;;;;;;2.77;2.43;;;34.40;42.20;;;;;;5033509;28;20453;-66
2021/07/19 09:07:57;;;;;;;3.20;2.90;;;35.90;43.10;;;;;;5033807;28;20198;-69
2021/07/19 09:10:27;;;;;;;3.33;2.90;;;36.80;38.90;;;;;;5033458;28;20429;-68
2021/07/19 09:12:54;;;;;;;2.70;2.50;;;37.40;39.80;;;;;;5033616;28;20402;-69
2021/07/19 09:15:39;;;;;;;3.80;2.73;;;38.00;36.70;;;;;;5033655;28;20500;-68
2021/07/19 09:18:06;;;;;;;3.50;2.53;;;38.30;39.50;;;;;;5033257;28;20847;-69
2021/07/19 09:20:39;;;;;;;4.00;2.90;;;38.40;37.70;;;;;;5033308;28;20746;-69
2021/07/19 09:23:08;;;;;;;3.73;3.13;;;38.90;37.70;;;;;;5033623;28;20421;-69
2021/07/19 09:25:33;;;;;;;6.60;2.90;;;39.30;38.10;;;;;;5033443;28;20822;-67
2021/07/19 09:28:06;;;;;;;2.80;2.40;;;39.20;37.80;;;;;;5033240;28;20425;-70
2021/07/19 09:30:37;;;;;;;3.07;2.50;;;39.40;35.40;;;;;;5033298;28;20186;-70
2021/07/19 09:33:05;;;;;;;2.70;2.50;;;39.50;34.40;;;;;;5033379;28;20405;-69
2021/07/19 09:35:33;;;;;;;3.03;2.73;;;39.00;36.90;;;;;;5033351;28;20406;-69
2021/07/19 09:38:06;;;;;;;3.60;3.37;;;39.00;34.50;;;;;;5033151;28;20513;-67
2021/07/19 09:40:34;;;;;;;3.93;3.50;;;39.00;33.90;;;;;;5033059;28;20413;-67
2021/07/19 09:43:11;;;;;;;3.30;3.00;;;38.80;36.80;;;;;;5033120;28;20466;-65
2021/07/19 09:45:37;;;;;;;2.60;1.80;;;39.30;35.40;;;;;;5033286;28;20456;-65
2021/07/19 09:48:07;;;;;;;4.33;2.67;;;39.00;38.00;;;;;;5033172;28;20785;-65
2021/07/19 09:50:47;;;;;;;5.80;2.70;;;38.60;34.00;;;;;;5033208;28;20631;-66
2021/07/19 09:53:13;;;;;;;2.70;2.47;;;38.80;37.00;;;;;;5033607;28;21035;-65
2021/07/19 09:55:39;;;;;;;4.00;2.87;;;39.00;35.20;;;;;;5032819;28;20414;-66
2021/07/19 09:58:05;;;;;;;5.73;2.67;;;39.00;33.10;;;;;;5033037;28;20452;-67
2021/07/19 10:00:32;;;;;;;3.20;2.63;;;39.10;35.80;;;;;;5033016;28;20546;-64
2021/07/19 10:02:58;;;;;;;5.87;2.97;;;39.30;35.30;;;;;;5033186;28;20429;-65
2021/07/19 10:05:31;;;;;;;6.40;3.10;;;39.50;32.70;;;;;;5033104;28;20496;-66
2021/07/19 10:07:59;;;;;;;2.53;2.33;;;39.60;37.50;;;;;;5032865;28;20226;-66
2021/07/19 10:10:36;;;;;;;6.67;3.30;;;39.80;34.70;;;;;;5034148;28;20413;-66
2021/07/19 10:13:09;;;;;;;5.73;2.90;;;39.90;34.70;;;;;;5036802;28;20931;-65
2021/07/19 10:15:37;;;;;;;5.73;2.90;;;39.70;34.30;;;;;;5037020;28;20397;-66
2021/07/19 10:18:08;;;;;;;4.40;3.47;;;39.80;32.30;;;;;;5036543;28;20402;-67
2021/07/19 10:20:37;;;;;;;5.93;2.80;;;39.90;34.30;;;;;;5036436;28;20410;-67
2021/07/19 10:23:04;;;;;;;5.63;3.00;;;40.10;31.40;;;;;;5036549;28;20774;-67
2021/07/19 10:25:29;;;;;;;4.53;3.43;;;40.00;34.30;;;;;;5036484;28;20453;-66
2021/07/19 10:27:56;;;;;;;6.63;3.20;;;39.80;34.40;;;;;;5036397;28;20804;-66
2021/07/19 10:30:22;;;;;;;8.17;3.80;;;39.90;34.40;;;;;;5036222;28;20250;-66
2021/07/19 10:32:48;;;;;;;6.13;3.77;;;39.90;33.20;;;;;;5036301;28;20917;-65
2021/07/19 10:35:15;;;;;;;7.50;3.40;;;39.60;32.20;;;;;;5036316;28;20179;-65
2021/07/19 10:37:50;;;;;;;5.87;2.77;;;39.20;32.90;;;;;;5036175;28;20437;-67
2021/07/19 10:40:25;;;;;;;8.53;3.70;;;39.10;33.20;;;;;;5036119;28;20407;-67
2021/07/19 10:43:02;;;;;;;4.53;3.10;;;38.70;34.10;;;;;;5036398;28;20408;-65
2021/07/19 10:45:38;;;;;;;4.00;2.90;;;38.50;36.10;;;;;;5036309;28;20456;-66
2021/07/19 10:48:04;;;;;;;3.23;2.83;;;38.50;34.00;;;;;;5036140;28;20398;-67
2021/07/19 10:50:40;;;;;;;5.20;3.53;;;38.30;36.00;;;;;;5035974;28;20490;-65
2021/07/19 10:53:17;;;;;;;7.63;3.00;;;37.60;33.60;;;;;;5036265;28;20398;-65
2021/07/19 10:55:43;;;;;;;5.67;3.10;;;37.20;35.80;;;;;;5036005;28;20414;-67
2021/07/19 10:58:18;;;;;;;6.97;3.23;;;37.10;34.90;;;;;;5035890;28;20410;-66
2021/07/19 11:00:46;;;;;;;4.80;2.60;;;36.20;35.60;;;;;;5035760;28;20467;-66
2021/07/19 11:03:16;;;;;;;5.13;2.97;;;34.40;35.80;;;;;;5034675;28;20416;-64
2021/07/19 11:05:49;;;;;;;4.67;2.97;;;33.20;39.30;;;;;;5035558;28;20449;-66
2021/07/19 11:08:27;;;;;;;6.80;3.00;;;32.30;40.60;;;;;;5035936;28;20525;-64
2021/07/19 11:10:55;;;;;;;3.60;3.30;;;31.80;41.80;;;;;;5035520;28;20496;-66
2021/07/19 11:13:31;;;;;;;5.40;3.07;;;31.50;44.30;;;;;;5035530;28;20401;-65
2021/07/19 11:15:58;;;;;;;4.60;3.63;;;30.40;42.00;;;;;;5035337;28;20900;-64
2021/07/19 11:18:30;;;;;;;6.10;2.60;;;30.00;42.90;;;;;;5035408;28;20463;-66
2021/07/19 11:21:01;;;;;;;3.50;3.03;;;30.00;43.70;;;;;;5035187;28;20402;-66
2021/07/19 11:23:32;;;;;;;3.90;2.50;;;29.40;45.30;;;;;;5035482;28;20429;-63
2021/07/19 11:25:59;;;;;;;4.60;2.63;;;29.00;47.00;;;;;;5035338;28;20453;-65
2021/07/19 11:28:29;;;;;;;8.37;3.83;;;29.20;48.90;;;;;;5035328;28;20504;-65
2021/07/19 11:31:19;;;;;;;3.90;2.90;;;29.70;47.60;;;;;;5035224;28;20406;-65
2021/07/19 11:33:56;;;;;;;5.70;3.20;;;29.90;47.40;;;;;;5035330;28;20398;-66
2021/07/19 11:36:26;;;;;;;2.80;2.13;;;29.50;43.50;;;;;;5035262;28;20475;-66
2021/07/19 11:38:56;;;;;;;7.47;3.60;;;29.60;47.50;;;;;;5035062;28;20397;-66
2021/07/19 11:41:23;;;;;;;3.50;2.13;;;29.80;45.40;;;;;;5035281;28;20480;-64
2021/07/19 11:43:51;;;;;;;6.00;2.00;;;30.00;41.20;;;;;;5035087;28;20410;-65
2021/07/19 11:46:46;;;;;;;2.37;2.17;;;30.10;40.50;;;;;;5035141;28;20429;-65
2021/07/19 11:49:13;;;;;;;4.17;3.13;;;29.80;40.30;;;;;;5026206;28;20432;-65
2021/07/19 11:51:43;;;;;;;3.43;2.10;;;29.30;43.40;;;;;;5035050;28;20729;-66
2021/07/19 11:54:15;;;;;;;6.80;2.70;;;29.40;47.90;;;;;;5035065;28;20445;-66
2021/07/19 11:56:53;;;;;;;6.80;2.40;;;29.10;40.00;;;;;;5034610;28;20445;-66
2021/07/19 11:59:20;;;;;;;4.47;1.90;;;29.00;40.80;;;;;;5034912;28;20416;-69
2021/07/19 12:02:04;;;;;;;4.07;1.23;;;28.40;41.70;;;;;;5034824;28;20394;-67
2021/07/19 12:04:41;;;;;;;6.30;3.33;;;28.50;39.00;;;;;;5034872;28;20438;-69
2021/07/19 12:07:08;;;;;;;4.40;1.73;;;28.50;41.30;;;;;;5034458;28;20448;-68
2021/07/19 12:09:34;;;;;;;3.73;2.20;;;28.80;40.80;;;;;;5034380;28;20965;-67
2021/07/19 12:12:02;;;;;;;3.60;2.30;;;28.80;41.90;;;;;;5034611;28;20451;-68
2021/07/19 12:14:29;;;;;;;5.00;1.83;;;28.90;44.00;;;;;;5034478;28;20413;-68
2021/07/19 12:16:55;;;;;;;4.67;2.43;;;29.00;37.40;;;;;;5034407;28;20440;-68
2021/07/19 12:19:22;;;;;;;3.97;2.43;;;29.20;41.20;;;;;;5034423;28;20406;-69
2021/07/19 12:21:50;;;;;;;3.30;1.30;;;29.10;42.10;;;;;;5034356;28;20394;-67
2021/07/19 12:24:17;;;;;;;2.70;1.50;;;29.30;38.70;;;;;;5034312;28;21015;-68
2021/07/19 12:26:48;;;;;;;5.00;1.50;;;29.50;36.60;;;;;;5034180;28;20556;-68
2021/07/19 12:29:15;;;;;;;6.10;1.43;;;29.50;41.60;;;;;;5033983;28;20416;-68
2021/07/19 12:32:04;;;;;;;3.83;2.37;;;29.10;42.00;;;;;;5034100;28;20484;-67
2021/07/19 12:34:31;;;;;;;2.40;1.40;;;29.20;43.10;;;;;;5033717;28;20401;-68
2021/07/19 12:36:59;;;;;;;5.40;1.87;;;29.70;43.30;;;;;;5033972;28;20438;-68
2021/07/19 12:39:29;;;;;;;2.43;1.90;;;30.10;41.10;;;;;;5033835;28;20786;-68
2021/07/19 12:41:56;;;;;;;2.40;1.80;;;30.20;37.00;;;;;;5034103;28;20485;-69
2021/07/19 12:44:27;;;;;;;2.90;2.23;;;30.00;36.20;;;;;;5033883;28;20456;-67
2021/07/19 12:46:54;;;;;;;3.20;1.60;;;29.60;37.90;;;;;;5033970;28;20887;-67
2021/07/19 12:49:27;;;;;;;3.93;1.83;;;29.30;38.50;;;;;;5033860;28;20379;-68
2021/07/19 12:52:02;;;;;;;2.03;1.80;;;29.10;38.10;;;;;;5033980;28;20402;-68
2021/07/19 12:54:28;;;;;;;1.90;1.43;;;29.10;38.60;;;;;;5033951;28;20409;-67